Terminal Aerodrome Forecast
Issued by NWS

Home | Current Version | Previous Version | Graphics & Text | Print | Product List | Glossary On
Versions: 1 2 3 4 5 6 7 8 9 10 11 12 13 14 15 16 17 18 19 20 21 22 23 24 25 26 27 28 29
000
FTUS43 KMPX 050520
TAFAXN
TAF
KAXN 050520Z 0506/0606 15009KT P6SM FEW040 BKN120
     FM050900 14007KT 5SM BR SCT015 SCT120
      TEMPO 0510/0514 BKN015
     FM051500 16012G20KT P6SM SCT025 BKN100 PROB30 0520/0524 5SM
      SHRA BKN025
     FM060000 19008KT 6SM -SHRA BR VCTS SCT020CB OVC035=

USA.gov is the U.S. government's official web portal to all federal, state and local government web resources and services.